Youngstown Warren Regional Airport
KYNG : now visible

Airfield :











YOU CAN JOIN US ON...

 
LOGIN :

Register | Disclaimer

   EN    FR    IT 

 









Legend :    VFR   Marginal VFR   IFR   Intensive IFR   Very Intensive IFR
Visi :
Ceiling :
>= 8 km
>= 3000ft
5 to 8 km
1000 to 3000 ft
1500m to 5 km
500 to 1000 ft
800 to 1500m
200 to 500 ft
< 800m
< 200 ft
Symbols :   Thunderstorms  Fog  Heavy snow  Heavy precipitations  Wind > 20 kt






- Airport Elevation : 1192 ft
- IATA code : YNG


KYNG - Youngstown Warren Regional

CURRENT METAR :
  • 031951Z 30014G21KT 10SM SCT055 BKN120 OVC250 27/14 A2975 RMK AO2 SLP065 T02720144

EXPIRED METARs :
  • 031851Z 26017G25KT 10SM BKN048 BKN070 OVC240 29/16 A2975 RMK AO2 SLP061 T02890156
  • 031751Z 26014G22KT 10SM BKN048 BKN070 BKN240 29/17 A2975 RMK AO2 SLP062 60010 T02940167 10294 20200 55005

TAF KYNG
Valid from the 03 at 18:00 until the 04 at 18:00 UTC


031739Z 0318/0418 28013G21KT P6SM SCT050
FM032200 30010KT P6SM SCT250
FM041200 18004KT P6SM SCT045 BKN100
FM041600 21004KT P6SM VCSH BKN060
KZOB FIR / North America



MET'MAP, your aeronautical weather chart ! - Copyright ORBIFLY December 2007 - Disclaimer

ORBIFLY MET'MAP TEAM :

Programming & Development : Alexandra Zaïnal
Concept & original design : Baudouin d'Aumeries
Assistance for programming : Marc-Olivier Méhu
Technical & hardware support : Manuel Goepfert

Contact : metmap@orbifly.com




SOURCES & CREDITS :

   NOAA       Earth
Advisory